Weather observations for the past three days for
Front Royal-warren County Airport
Metric (Imperial)
Date Time (edt) Wind (kph) Vis. (km) Weather Sky Cond. Temperature (ºC) Relative Humidity Wind Chill (°C) Heat Index (°C) Pressure Precipitation (cm)
Air Dwpt 6 hour altimeter (cm) sea level (mb) 1 hr 3 hr 6 hr
Max. Min.
05 11:35 SW 7 16.09 Overcast SCT010 SCT023 OVC055 22.5 21.4 94% 76.05 0.0
05 10:55 Calm 16.09 Overcast BKN043 OVC049 22.5 21.2 92% 76.05 0.0
05 10:35 S 6 16.09 Overcast BKN043 OVC049 22.6 21.2 92% 76.05 0.0
05 10:15 Calm 16.09 Overcast SCT027 OVC047 23 20.9 88% 76 0.0
05 09:55 Calm 16.09 Overcast OVC027 22.6 20.9 90% 76.02 0.0
05 09:35 SW 6 16.09 Overcast BKN029 BKN039 OVC055 22.8 20.9 89% 76 0.0
05 09:15 Calm 16.09 Overcast BKN038 BKN047 OVC055 22.3 20.8 91% 75.97 0.0
05 08:55 Calm 16.09 Overcast OVC038 21.5 20.4 93% 75.97 0.0
05 07:35 Calm 16.09 Overcast OVC033 20.7 20.1 96% 75.95 0.0
05 06:55 Calm 11.27 Overcast SCT002 OVC035 19.7 19.5 99% 75.92 0.0
05 06:35 Calm 16.09 Mostly Cloudy BKN035 19.6 19.5 99% 75.92 0.0
05 06:15 Calm 11.27 Partly Cloudy SCT035 19.5 19.2 98% 75.87 0.0
05 05:35 Calm 16.09 Fair CLR 20.2 19.7 97% 75.87 0.0
05 04:35 S 6 16.09 Fair CLR 20.3 20 98% 75.87 0.0
05 03:55 S 7 16.09 Fair CLR 20.7 20.2 97% 75.9 0.0
05 03:15 S 6 16.09 Fair CLR 20.9 20.3 96% 75.92 0.0
05 02:55 S 7 16.09 Fair CLR 21 20.3 96% 75.92 0.0
05 02:35 S 6 16.09 Partly Cloudy SCT100 21.1 20.5 96% 75.95 0.0
05 02:15 S 7 16.09 Partly Cloudy SCT100 21.3 20.5 95% 75.97 0.0
05 01:55 SW 7 16.09 Partly Cloudy SCT100 21.3 20.7 23 21.2 96% 76 0.0
05 01:35 Calm 16.09 Mostly Cloudy BKN100 BKN120 21.5 21 97% 76.02 0.0
05 01:15 S 7 16.09 Partly Cloudy SCT120 21.3 20.9 98% 76.02 0.0
05 00:55 S 6 16.09 Fair CLR 21.5 21 97% 76.05 0.0
05 00:35 S 9 16.09 Fair CLR 21.5 21 97% 76.05 0.0
05 00:15 S 9 16.09 Fair CLR 21.7 21.1 96% 76.05 0.0
04 23:55 S 9 16.09 Fair CLR 21.8 21.1 96% 76.05 0.0
04 23:35 S 7 16.09 Fair CLR 21.9 21.2 96% 76.07 0.0
04 23:15 S 7 16.09 Fair CLR 22 21.4 96% 76.07 0.0
04 22:55 S 7 16.09 Fair CLR 22 21.5 97% 76.05 0.0
04 22:35 S 7 16.09 Fair CLR 22 21.6 98% 76.05 0.0
04 22:15 S 6 16.09 Fair CLR 22.2 21.7 97% 76.02 0.0
04 21:55 S 9 16.09 Fair CLR 22.2 21.7 97% 76 0.0
04 21:35 S 9 16.09 Fair CLR 22.3 21.7 96% 76 0.0
04 21:15 S 7 16.09 Fair CLR 22.5 21.6 95% 75.97 0.0
04 20:55 Calm 16.09 Fair CLR 22.5 21.7 95% 75.97 0.0
04 20:35 S 7 16.09 Fair CLR 22.6 21.7 95% 75.97 0.0
04 20:15 S 7 16.09 Fair CLR 22.7 21.7 94% 75.97 0.0
04 19:55 S 7 16.09 Fair CLR 23 21.7 34.8 22 92% 75.97 0.0 0.05
04 19:35 S 9 16.09 Fair CLR 23.1 21.7 92% 75.97 0.0
04 19:15 S 9 16.09 Fair CLR 23.5 21.6 89% 75.97 0.0
04 18:35 S 7 16.09 Fair CLR 24.1 21.1 83% 24 75.97 0.0
04 18:15 S 11 16.09 Fair CLR 24.2 21.5 85% 24 76 0.0
04 17:35 S 7 16.09 Partly Cloudy SCT065 24 22.1 89% 24 76.02 0.0
04 17:15 S 9 16.09 Fair CLR 24.3 21.9 87% 24 76.05 0.0
04 16:55 S 6 16.09 Partly Cloudy SCT090 SCT120 24.7 22 85% 25 76.07 0.0 0.05
04 16:35 Calm 16.09 Mostly Cloudy SCT100 BKN120 24 22.9 94% 23 76.1 0.0
04 15:55 S 6 16.09 Partly Cloudy SCT070 SCT095 SCT120 22.5 22 97% 76.05 0.0 0.05
04 15:35 S 6 16.09 Light Rain SCT060 BKN070 BKN100 22 21.2 95% 76.05 0.0 0.03
04 15:15 N 30 G 43 16.09 Mostly Cloudy BKN065 BKN080 BKN110 31.7 22.8 59% 36 76.02 0.0
04 14:55 N 9 16.09 Partly Cloudy SCT055 SCT065 SCT075 33.4 22.3 52% 38 75.92 0.0
04 14:35 NW 7 16.09 Fair CLR 33.5 22 51% 38 75.97 0.0
04 14:15 Calm 16.09 Partly Cloudy SCT050 33.5 22.5 53% 38 76 0.0
04 13:55 Calm 16.09 Fair CLR 33.2 22.7 54% 38 76.02 0.0 0.03
04 13:35 Calm 16.09 Partly Cloudy SCT050 33.6 23.2 54% 39 76.05 0.0
04 13:15 E 6 16.09 Fair CLR 32.8 23.1 57% 38 76.07 0.0
04 12:55 Calm 16.09 Fair CLR 32.1 22.5 57% 36 76.07 0.0
04 12:35 Calm 16.09 Fair CLR 32 22.8 58% 37 76.1 0.0
04 12:15 Calm 16.09 Fair CLR 31.5 22 57% 35 76.12 0.0
04 11:35 Calm 16.09 Fair CLR 29.7 21.6 62% 33 76.12 0.0 0.03
04 10:55 N 6 16.09 Fair CLR 28.9 21.6 65% 32 76.12 0.0
04 10:35 Calm 16.09 Fair CLR 28.2 21.4 67% 31 76.15 0.0
04 10:15 Calm 16.09 Fair CLR 0 0 0% 76.15 0.0
04 09:55 Calm 16.09 Fair CLR 0 0 0% 76.15 0.0
04 09:35 Calm 16.09 Fair CLR 0 0 0% 76.15 0.0
04 09:15 Calm 16.09 Fair CLR 0 0 0% 76.15 0.0
04 08:55 Calm 16.09 Fair CLR 0 0 0% 76.17 0.0
04 08:35 Calm 16.09 Fair CLR 0 0 0% 76.17 0.0
04 07:35 Calm 16.09 Fair CLR 0 0 0% 76.15 0.0
04 05:55 S 11 16.09 Fair CLR 0 0 0% 76.07 0.0
04 05:15 S 6 16.09 Fair CLR 0 0 0% 76.05 0.0
04 04:55 S 7 16.09 Fair CLR 0 0 0% 76.05 0.0
04 04:15 S 9 16.09 Fair CLR 0 0 0% 76.05 0.0
04 03:55 S 9 16.09 Fair CLR 0 0 0% 76.05 0.0
04 03:35 S 11 16.09 Fair CLR 0 0 0% 76.05 0.0
04 03:15 S 7 16.09 Fair CLR 0 0 0% 76.07 0.0
04 02:55 S 6 16.09 Fair CLR 0 0 0% 76.05 0.0
04 02:35 S 11 16.09 Fair CLR 0 0 0% 76.05 0.0
04 01:55 S 7 16.09 Fair CLR 0 0 0% 76.07 0.0 0.48
04 01:35 SW 7 16.09 Fair CLR 0 0 0% 76.1 0.0
04 01:15 SW 6 16.09 Fair CLR 0 0 0% 76.1 0.0
04 00:55 S 9 11.27 Rain SCT120 0 0 0% 76.17 0.0 0.23
04 00:15 SE 13 11.27 Light Rain SCT060 SCT080 BKN110 0 0 0% 76.28 0.0 0.1
03 23:55 W 15 G 56 8.05 Heavy Rain SCT041 BKN055 OVC075 0 0 0% 76.35 0.0 0.18
03 23:35 N 13 G 35 16.09 Overcast SCT034 BKN041 OVC047 25.3 19.4 70% 26 76.35 0.0
03 23:15 NW 24 G 39 16.09 Overcast SCT034 BKN042 OVC090 27.3 19.1 61% 29 76.3 0.0
03 22:35 SW 6 16.09 Mostly Cloudy SCT070 SCT090 BKN110 26.7 23.7 84% 29 76.12 0.0
03 22:15 S 6 16.09 Mostly Cloudy SCT060 BKN070 BKN100 0 0 0% 76.15 0.0
03 21:55 S 6 16.09 Partly Cloudy SCT060 SCT070 0 0 0% 76.15 0.0
03 21:35 Calm 16.09 Fair CLR 0 0 0% 76.12 0.0
03 21:15 S 6 16.09 Fair CLR 0 0 0% 76.12 0.0
03 20:35 S 7 16.09 Fair CLR 0 0 0% 76.1 0.0
03 20:15 S 7 16.09 Fair CLR 0 0 0% 76.12 0.0
03 19:35 Calm 16.09 Fair CLR 0 0 0% 76.12 0.0
03 16:35 S 11 16.09 Fair CLR 0 0 0% 76.07 0.0
03 15:55 SW 11 16.09 Fair CLR 0 0 0% 76.12 0.0
03 15:35 S 7 16.09 Fair CLR 0 0 0% 76.15 0.0
03 15:15 S 11 16.09 Fair CLR 32.1 23.7 61% 38 76.17 0.0
03 14:55 SW 6 16.09 Fair CLR 0 0 0% 76.2 0.0
03 14:35 S 7 16.09 Fair CLR 0 0 0% 76.23 0.0
03 13:35 SW 7 16.09 Partly Cloudy SCT032 SCT049 SCT075 27.7 23.7 79% 31 76.3 0.0
03 13:15 S 6 16.09 Partly Cloudy SCT055 0 0 0% 76.33 0.0
03 12:55 Calm 16.09 Mostly Cloudy SCT023 BKN055 BKN110 0 0 0% 76.38 0.0
03 12:35 Calm 16.09 Mostly Cloudy BKN023 BKN048 27.1 22.7 77% 30 76.4 0.0
03 12:15 Calm 16.09 Mostly Cloudy SCT023 BKN048 BKN065 0 0 0% 76.38 0.0
03 11:55 N 11 16.09 Mostly Cloudy BKN048 BKN065 0 0 0% 76.43 0.0
03 11:35 N 6 16.09 Mostly Cloudy SCT050 BKN065 0 0 0% 76.4 0.0
03 11:15 Calm 16.09 Fair CLR 0 0 0% 76.38 0.0
03 10:55 Calm 16.09 Partly Cloudy SCT050 SCT065 0 0 0% 76.38 0.0
03 10:35 Calm 16.09 Fair CLR 0 0 0% 76.38 0.0
03 10:15 W 7 16.09 Fair CLR 0 0 0% 76.38 0.0
03 09:35 W 7 11.27 Mostly Cloudy BKN007 0 0 0% 76.4 0.0
03 09:15 Calm 11.27 Overcast OVC007 0 0 0% 76.4 0.0
03 08:55 Calm 11.27 Overcast OVC007 0 0 0% 76.43 0.0
03 08:35 Calm 11.27 Overcast OVC007 0 0 0% 76.45 0.0
03 08:15 Calm 11.27 Overcast OVC007 0 0 0% 76.45 0.0
03 07:35 NE 9 16.09 Overcast SCT007 BKN015 OVC060 0 0 0% 76.43 0.0
03 07:15 NE 11 16.09 Mostly Cloudy SCT007 BKN060 0 0 0% 76.4 0.0
03 06:55 NE 9 16.09 Partly Cloudy SCT060 0 0 0% 76.35 0.0
03 06:35 S 7 16.09 Fair CLR 0 0 0% 76.25 0.0
03 05:55 S 9 16.09 Fair CLR 0 0 0% 76.23 0.0
03 05:15 S 7 16.09 Fair CLR 0 0 0% 76.25 0.0
03 02:15 S 6 16.09 Fair CLR 0 0 0% 76.23 0.0
03 01:55 S 7 16.09 Fair CLR 0 0 0% 76.23 0.0
03 01:35 S 7 16.09 Fair CLR 0 0 0% 76.25 0.0
03 00:35 S 7 16.09 Overcast OVC070 0 0 0% 76.3 0.0
02 23:55 S 6 16.09 Mostly Cloudy BKN070 0 0 0% 76.3 0.0
02 22:35 Calm 11.27 Partly Cloudy SCT070 0 0 0% 76.28 0.0
02 22:15 Calm 11.27 Fair CLR 0 0 0% 76.3 0.0
02 21:35 SW 6 16.09 Fair CLR 0 0 0% 76.3 0.0
02 21:15 Calm 16.09 Fair CLR 0 0 0% 76.3 0.0
02 20:55 SW 6 16.09 Mostly Cloudy BKN070 0 0 0% 76.3 0.0
02 20:35 Calm 16.09 Overcast BKN070 OVC090 0 0 0% 76.33 0.0
02 20:15 Calm 16.09 Overcast BKN070 OVC090 0 0 0% 76.33 0.0
02 19:55 Calm 16.09 Mostly Cloudy BKN090 0 0 0% 76.33 0.0 1.12
02 19:35 Calm 16.09 Partly Cloudy SCT070 SCT100 0 0 0% 76.3 0.0
02 19:15 Calm 16.09 Partly Cloudy SCT070 SCT090 SCT110 25 22.7 87% 26 76.28 0.0
02 18:55 Calm 16.09 Mostly Cloudy SCT070 BKN100 25.7 22.7 84% 27 76.3 0.0
02 18:35 Calm 16.09 Partly Cloudy SCT080 24.7 22 85% 25 76.33 0.0
02 18:15 Calm 16.09 Partly Cloudy SCT080 SCT090 25 22 83% 26 76.3 0.0
02 17:55 Calm 16.09 Mostly Cloudy BKN070 BKN085 0 0 0% 76.28 0.0
02 17:35 NE 6 16.09 Mostly Cloudy BKN070 BKN080 26.6 21.9 75% 29 76.3 0.0
02 17:15 Calm 16.09 Partly Cloudy SCT080 26.6 21.8 75% 29 76.33 0.0
02 16:55 Calm 16.09 Fair CLR 26.5 22.2 77% 28 76.33 0.0 1.12
02 16:35 E 6 16.09 Fair CLR 0 0 0% 76.33 0.0
02 15:55 E 9 16.09 Partly Cloudy SCT065 SCT070 SCT085 26.3 22.9 82% 28 76.38 0.0 0.1
02 15:35 E 11 16.09 Partly Cloudy SCT065 SCT085 0 0 0% 76.4 0.0 0.1
02 15:15 E 9 16.09 Light Rain SCT017 BKN042 OVC070 0 0 0% 76.38 0.0 0.1
02 14:55 NE 13 2.82 Heavy Rain SCT016 BKN031 OVC055 23.6 22.5 94% 76.35 0.0 0.94
02 14:35 NE 19 G 37 11.27 Heavy Rain BKN050 BKN070 OVC085 0 0 0% 76.33 0.0 0.08
02 14:15 S 6 16.09 Mostly Cloudy SCT050 SCT060 BKN075 34.4 23 51% 40 76.28 0.0
02 13:55 S 7 16.09 Overcast BKN060 BKN065 OVC085 35.2 23 49% 41 76.28 0.0
Date Time (edt) Wind (kph) Vis. (km) Weather Sky Cond. Air Dwpt Max. Min. Relative Humidity Wind Chill (°C) Heat Index (°C) altimeter (cm) sea level (mb) 1 hr 3 hr 6 hr
6 hour
Temperature (ºC) Pressure Precipitation (cm)